createdAt,value
2019-02-10T00:00:29.159Z,0.00
2019-02-10T00:01:29.141Z,0.00
2019-02-10T00:02:29.222Z,0.00
2019-02-10T00:03:29.209Z,0.00
2019-02-10T00:04:29.172Z,0.00
2019-02-10T00:05:29.181Z,0.00
2019-02-10T00:06:29.233Z,0.00
2019-02-10T00:07:29.195Z,0.00
2019-02-10T00:08:29.247Z,0.00
2019-02-10T00:09:29.266Z,0.00
2019-02-10T00:10:29.230Z,0.00
2019-02-10T00:11:29.215Z,0.00
2019-02-10T00:12:29.453Z,0.00
2019-02-10T00:13:29.211Z,0.00
2019-02-10T00:14:30.067Z,0.00
2019-02-10T00:15:29.248Z,0.00
2019-02-10T00:16:29.250Z,0.00
2019-02-10T00:17:29.250Z,0.00
2019-02-10T00:18:29.335Z,0.00
2019-02-10T00:19:29.256Z,0.00
2019-02-10T00:20:29.242Z,0.00
2019-02-10T00:21:29.390Z,0.00
2019-02-10T00:22:29.282Z,0.00
2019-02-10T00:23:29.310Z,0.00
2019-02-10T00:24:29.323Z,0.00
2019-02-10T00:25:29.351Z,0.00
2019-02-10T00:26:29.319Z,0.00
2019-02-10T00:27:29.295Z,0.00
2019-02-10T00:28:29.381Z,0.00
2019-02-10T00:29:29.378Z,0.00
2019-02-10T00:30:29.421Z,0.00
2019-02-10T00:31:29.406Z,0.00
2019-02-10T00:32:29.313Z,0.00
2019-02-10T00:33:29.308Z,0.00
2019-02-10T00:34:29.334Z,0.00
2019-02-10T00:35:29.342Z,0.00
2019-02-10T00:36:33.352Z,0.00
2019-02-10T00:37:29.448Z,0.00
2019-02-10T00:38:29.476Z,0.00
2019-02-10T00:39:29.425Z,0.00
2019-02-10T00:40:29.353Z,0.00
2019-02-10T00:41:29.375Z,0.00
2019-02-10T00:42:29.361Z,0.00
2019-02-10T00:43:29.738Z,0.00
2019-02-10T00:44:29.409Z,0.00
2019-02-10T00:45:29.376Z,0.00
2019-02-10T00:46:29.390Z,0.00
2019-02-10T00:47:29.364Z,0.00
2019-02-10T00:48:29.382Z,0.00
2019-02-10T00:49:29.459Z,0.00
2019-02-10T00:50:29.427Z,0.00
2019-02-10T00:51:29.428Z,0.00
2019-02-10T00:52:29.448Z,0.00
2019-02-10T00:53:29.447Z,0.00
2019-02-10T00:54:29.481Z,0.00
2019-02-10T00:55:29.511Z,0.00
2019-02-10T00:56:29.412Z,0.00
2019-02-10T00:57:29.418Z,0.00
2019-02-10T00:58:29.552Z,0.00
2019-02-10T00:59:29.467Z,0.00
2019-02-10T01:00:29.594Z,0.00
2019-02-10T01:01:29.484Z,0.00
2019-02-10T01:02:29.431Z,0.00
2019-02-10T01:03:29.491Z,0.00
2019-02-10T01:04:29.454Z,0.00
2019-02-10T01:05:29.490Z,0.00
2019-02-10T01:06:29.501Z,0.00
2019-02-10T01:07:29.448Z,0.00
2019-02-10T01:08:29.517Z,0.00
2019-02-10T01:09:29.503Z,0.00
2019-02-10T01:10:29.497Z,0.00
2019-02-10T01:11:29.543Z,0.00
2019-02-10T01:12:29.545Z,0.00
2019-02-10T01:13:29.575Z,0.00
2019-02-10T01:14:29.496Z,0.00
2019-02-10T01:15:29.587Z,0.00
2019-02-10T01:16:29.640Z,0.00
2019-02-10T01:17:29.645Z,0.00
2019-02-10T01:18:29.510Z,0.00
2019-02-10T01:19:29.593Z,0.00
2019-02-10T01:20:29.557Z,0.00
2019-02-10T01:21:29.642Z,0.00
2019-02-10T01:22:29.554Z,0.00
2019-02-10T01:23:29.575Z,0.00
2019-02-10T01:24:29.571Z,0.00
2019-02-10T01:25:29.668Z,0.00
2019-02-10T01:26:29.568Z,0.00
2019-02-10T01:27:29.620Z,0.00
2019-02-10T01:28:29.642Z,0.00
2019-02-10T01:29:29.583Z,0.00
2019-02-10T01:30:29.611Z,0.00
2019-02-10T01:31:29.601Z,0.00
2019-02-10T01:32:29.626Z,0.00
2019-02-10T01:33:29.641Z,0.00
2019-02-10T01:34:29.628Z,0.00
2019-02-10T01:35:29.657Z,0.00
2019-02-10T01:36:29.629Z,0.00
2019-02-10T01:37:30.046Z,0.00
2019-02-10T01:38:29.655Z,0.00
2019-02-10T01:39:29.628Z,0.00
2019-02-10T01:40:29.672Z,0.00
2019-02-10T01:41:29.627Z,0.00
2019-02-10T01:42:29.694Z,0.00
2019-02-10T01:43:29.651Z,0.00
2019-02-10T01:44:29.711Z,0.00
2019-02-10T01:45:29.637Z,0.00
2019-02-10T01:46:29.677Z,0.00
2019-02-10T01:47:29.665Z,0.00
2019-02-10T01:48:29.681Z,0.00
2019-02-10T01:49:29.825Z,0.00
2019-02-10T01:50:29.675Z,0.00
2019-02-10T01:51:29.702Z,0.00
2019-02-10T01:52:29.753Z,0.00
2019-02-10T01:53:29.718Z,0.00
2019-02-10T01:54:29.708Z,0.00
2019-02-10T01:55:29.720Z,0.00
2019-02-10T01:56:29.771Z,0.00
2019-02-10T01:57:29.696Z,0.00
2019-02-10T01:58:29.751Z,0.00
2019-02-10T01:59:29.713Z,0.00
2019-02-10T02:00:29.789Z,0.00
2019-02-10T02:01:29.719Z,0.00
2019-02-10T02:02:29.784Z,0.00
2019-02-10T02:03:29.813Z,0.00
2019-02-10T02:04:29.834Z,0.00
2019-02-10T02:05:29.767Z,0.00
2019-02-10T02:06:29.747Z,0.00
2019-02-10T02:07:29.741Z,0.00
2019-02-10T02:08:29.784Z,0.00
2019-02-10T02:09:29.825Z,0.00
2019-02-10T02:10:29.825Z,0.00
2019-02-10T02:11:29.977Z,0.00
2019-02-10T02:12:30.019Z,0.00
2019-02-10T02:13:29.853Z,0.00
2019-02-10T02:14:30.011Z,0.00
2019-02-10T02:15:29.766Z,0.00
2019-02-10T02:16:29.871Z,0.00
2019-02-10T02:17:29.850Z,0.00
2019-02-10T02:18:29.828Z,0.00
2019-02-10T02:19:29.826Z,0.00
2019-02-10T02:20:29.873Z,0.00
2019-02-10T02:21:29.806Z,0.00
2019-02-10T02:22:29.809Z,0.00
2019-02-10T02:23:29.821Z,0.00
2019-02-10T02:24:29.820Z,0.00
2019-02-10T02:25:29.812Z,0.00
2019-02-10T02:26:29.841Z,0.00
2019-02-10T02:27:29.819Z,0.00
2019-02-10T02:28:29.869Z,0.00
2019-02-10T02:29:29.823Z,0.00
2019-02-10T02:30:29.882Z,0.00
2019-02-10T02:31:29.854Z,0.00
2019-02-10T02:32:29.845Z,0.00
2019-02-10T02:33:29.868Z,0.00
2019-02-10T02:34:29.860Z,0.00
2019-02-10T02:35:29.865Z,0.00
2019-02-10T02:36:29.898Z,0.00
2019-02-10T02:37:29.875Z,0.00
2019-02-10T02:38:29.889Z,0.00
2019-02-10T02:39:29.870Z,0.00
2019-02-10T02:40:29.939Z,0.00
2019-02-10T02:41:29.903Z,0.00
2019-02-10T02:42:29.895Z,0.00
2019-02-10T02:43:29.911Z,0.00
2019-02-10T02:44:29.906Z,0.00
2019-02-10T02:45:29.894Z,0.00
2019-02-10T02:46:29.959Z,0.00
2019-02-10T02:47:29.919Z,0.00
2019-02-10T02:48:29.927Z,0.00
2019-02-10T02:49:29.933Z,0.00
2019-02-10T02:50:29.940Z,0.00
2019-02-10T02:51:29.910Z,0.00
2019-02-10T02:52:29.964Z,0.00
2019-02-10T02:53:29.927Z,0.00
2019-02-10T02:54:29.936Z,0.00
2019-02-10T02:55:30.032Z,0.00
2019-02-10T02:56:29.960Z,0.00
2019-02-10T02:57:29.984Z,0.00
2019-02-10T02:58:29.980Z,0.00
2019-02-10T02:59:29.968Z,0.00
2019-02-10T03:00:29.972Z,0.00
2019-02-10T03:01:29.973Z,0.00
2019-02-10T03:02:29.986Z,0.00
2019-02-10T03:03:30.011Z,0.00
2019-02-10T03:04:29.983Z,0.00
2019-02-10T03:05:29.974Z,0.00
2019-02-10T03:06:29.984Z,0.00
2019-02-10T03:07:29.999Z,0.00
2019-02-10T03:08:30.033Z,0.00
2019-02-10T03:09:30.032Z,0.00
2019-02-10T03:10:30.022Z,0.00
2019-02-10T03:11:30.034Z,0.00
2019-02-10T03:12:30.024Z,0.00
2019-02-10T03:13:30.018Z,0.00
2019-02-10T03:14:30.028Z,0.00
2019-02-10T03:15:30.036Z,0.00
2019-02-10T03:16:30.016Z,0.00
2019-02-10T03:17:30.055Z,0.00
2019-02-10T03:18:30.028Z,0.00
2019-02-10T03:19:30.046Z,0.00
2019-02-10T03:20:30.053Z,0.00
2019-02-10T03:21:30.062Z,0.00
2019-02-10T03:22:30.063Z,0.00
2019-02-10T03:23:30.075Z,0.00
2019-02-10T03:24:30.096Z,0.00
2019-02-10T03:25:30.087Z,0.00
2019-02-10T03:26:30.099Z,0.00
2019-02-10T03:27:30.070Z,0.00
2019-02-10T03:28:30.084Z,0.00
2019-02-10T03:29:30.102Z,0.00
2019-02-10T03:30:30.085Z,0.00
2019-02-10T03:31:30.089Z,0.00
2019-02-10T03:32:30.087Z,0.00
2019-02-10T03:33:30.115Z,0.00
2019-02-10T03:34:30.152Z,0.00
2019-02-10T03:35:30.135Z,0.00
2019-02-10T03:36:30.116Z,0.00
2019-02-10T03:37:30.114Z,0.00
2019-02-10T03:38:30.124Z,0.00
2019-02-10T03:39:30.114Z,0.00
2019-02-10T03:40:30.135Z,0.00
2019-02-10T03:41:30.155Z,0.00
2019-02-10T03:42:30.135Z,0.00
2019-02-10T03:43:30.148Z,0.00
2019-02-10T03:44:30.127Z,0.00
2019-02-10T03:45:30.185Z,0.00
2019-02-10T03:46:30.168Z,0.00
2019-02-10T03:47:30.182Z,0.00
2019-02-10T03:48:30.155Z,0.00
2019-02-10T03:49:30.180Z,0.00
2019-02-10T03:50:30.210Z,0.00
2019-02-10T03:51:30.167Z,0.00
2019-02-10T03:52:30.163Z,0.00
2019-02-10T03:53:30.181Z,0.00
2019-02-10T03:54:30.202Z,0.00
2019-02-10T03:55:30.177Z,0.00
2019-02-10T03:56:30.246Z,0.00
2019-02-10T03:57:30.189Z,0.00
2019-02-10T03:58:30.201Z,0.00
2019-02-10T03:59:30.196Z,0.00
2019-02-10T04:00:30.230Z,0.00
2019-02-10T04:01:30.200Z,0.00
2019-02-10T04:02:30.267Z,0.00
2019-02-10T04:03:30.226Z,0.00
2019-02-10T04:04:30.211Z,0.00
2019-02-10T04:05:30.221Z,0.00
2019-02-10T04:06:30.231Z,0.00
2019-02-10T04:07:35.904Z,0.00
2019-02-10T04:08:30.245Z,0.00
2019-02-10T04:09:30.235Z,0.00
2019-02-10T04:10:30.262Z,0.00
2019-02-10T04:11:30.478Z,0.00
2019-02-10T04:12:30.252Z,0.00
2019-02-10T04:13:30.266Z,0.00
2019-02-10T04:14:30.277Z,0.00
2019-02-10T04:15:30.283Z,0.00
2019-02-10T04:16:30.275Z,0.00
2019-02-10T04:17:30.283Z,0.00
2019-02-10T04:18:30.320Z,0.00
2019-02-10T04:19:30.309Z,0.00
2019-02-10T04:20:30.291Z,0.00
2019-02-10T04:21:30.285Z,0.00
2019-02-10T04:22:30.288Z,0.00
2019-02-10T04:23:30.295Z,0.00
2019-02-10T04:24:30.447Z,0.00
2019-02-10T04:25:30.448Z,0.00
2019-02-10T04:26:30.293Z,0.00
2019-02-10T04:27:30.309Z,0.00
2019-02-10T04:28:30.300Z,0.00
2019-02-10T04:29:30.324Z,0.00
2019-02-10T04:30:30.329Z,0.00
2019-02-10T04:31:30.351Z,0.00
2019-02-10T04:32:30.349Z,0.00
2019-02-10T04:33:30.408Z,0.00
2019-02-10T04:34:30.364Z,0.00
2019-02-10T04:35:30.382Z,0.00
2019-02-10T04:36:30.367Z,0.00
2019-02-10T04:37:30.352Z,0.00
2019-02-10T04:38:30.354Z,0.00
2019-02-10T04:39:30.362Z,0.00
2019-02-10T04:40:30.375Z,0.00
2019-02-10T04:41:30.369Z,0.00
2019-02-10T04:42:30.379Z,0.00
2019-02-10T04:43:30.413Z,0.00
2019-02-10T04:44:30.401Z,0.00
2019-02-10T04:45:30.431Z,0.00
2019-02-10T04:46:30.394Z,0.00
2019-02-10T04:47:30.405Z,0.00
2019-02-10T04:48:30.386Z,0.00
2019-02-10T04:49:30.445Z,0.00
2019-02-10T04:50:30.398Z,0.00
2019-02-10T04:51:30.419Z,0.00
2019-02-10T04:52:30.429Z,0.00
2019-02-10T04:53:30.459Z,0.00
2019-02-10T04:54:30.433Z,0.00
2019-02-10T04:55:30.419Z,0.00
2019-02-10T04:56:30.419Z,0.00
2019-02-10T04:57:30.455Z,0.00
2019-02-10T04:58:30.426Z,0.00
2019-02-10T04:59:30.430Z,0.00
2019-02-10T05:00:30.500Z,0.00
2019-02-10T05:01:30.446Z,0.00
2019-02-10T05:02:30.458Z,0.00
2019-02-10T05:03:30.494Z,0.00
2019-02-10T05:04:30.456Z,0.00
2019-02-10T05:05:30.470Z,0.00
2019-02-10T05:06:30.471Z,0.00
2019-02-10T05:07:30.456Z,0.00
2019-02-10T05:08:30.499Z,0.00
2019-02-10T05:09:30.521Z,0.00
2019-02-10T05:10:30.504Z,0.00
2019-02-10T05:11:30.475Z,0.00
2019-02-10T05:12:30.481Z,0.00
2019-02-10T05:13:30.488Z,0.00
2019-02-10T05:14:30.529Z,0.00
2019-02-10T05:15:30.533Z,0.00
2019-02-10T05:16:30.516Z,0.00
2019-02-10T05:17:30.521Z,0.00
2019-02-10T05:18:30.512Z,0.00
2019-02-10T05:19:30.522Z,0.00
2019-02-10T05:20:30.526Z,0.00
2019-02-10T05:21:30.522Z,0.00
2019-02-10T05:22:30.526Z,0.00
2019-02-10T05:23:30.534Z,0.00
2019-02-10T05:24:30.536Z,0.00
2019-02-10T05:25:30.553Z,0.00
2019-02-10T05:26:30.545Z,0.00
2019-02-10T05:27:30.671Z,0.00
2019-02-10T05:28:30.559Z,0.00
2019-02-10T05:29:30.555Z,0.00
2019-02-10T05:30:30.638Z,0.00
2019-02-10T05:31:30.601Z,0.00
2019-02-10T05:32:30.569Z,0.00
2019-02-10T05:33:30.574Z,0.00
2019-02-10T05:34:30.596Z,0.00
2019-02-10T05:35:30.691Z,0.00
2019-02-10T05:36:30.903Z,0.00
2019-02-10T05:37:30.744Z,0.00
2019-02-10T05:38:30.647Z,0.00
2019-02-10T05:39:30.622Z,0.00
2019-02-10T05:40:30.603Z,0.00
2019-02-10T05:41:30.629Z,0.00
2019-02-10T05:42:30.660Z,0.00
2019-02-10T05:43:30.637Z,0.00
2019-02-10T05:44:30.644Z,0.00
2019-02-10T05:45:30.630Z,0.00
2019-02-10T05:46:30.646Z,0.00
2019-02-10T05:47:30.719Z,0.00
2019-02-10T05:48:30.647Z,0.00
2019-02-10T05:49:30.660Z,0.00
2019-02-10T05:50:30.707Z,0.00
2019-02-10T05:51:30.636Z,0.00
2019-02-10T05:52:30.639Z,0.00
2019-02-10T05:53:30.683Z,0.00
2019-02-10T05:54:30.674Z,0.00
2019-02-10T05:55:30.684Z,0.00
2019-02-10T05:56:30.671Z,0.00
2019-02-10T05:57:30.754Z,0.00
2019-02-10T05:58:30.755Z,0.00
2019-02-10T05:59:30.689Z,0.00
2019-02-10T06:00:30.839Z,0.00
2019-02-10T06:01:30.731Z,4.00
2019-02-10T06:02:30.708Z,4.00
2019-02-10T06:03:31.499Z,0.00
2019-02-10T06:04:30.775Z,0.00
2019-02-10T06:05:30.806Z,4.00
2019-02-10T06:06:30.782Z,4.00
2019-02-10T06:07:30.778Z,4.00
2019-02-10T06:08:30.777Z,4.00
2019-02-10T06:09:30.776Z,4.00
2019-02-10T06:10:30.776Z,8.00
2019-02-10T06:11:30.841Z,4.00
2019-02-10T06:12:30.791Z,8.00
2019-02-10T06:13:30.805Z,8.00
2019-02-10T06:14:30.807Z,12.00
2019-02-10T06:15:30.775Z,12.00
2019-02-10T06:16:30.748Z,12.00
2019-02-10T06:17:30.797Z,12.00
2019-02-10T06:18:30.797Z,16.00
2019-02-10T06:19:30.878Z,20.00
2019-02-10T06:20:30.985Z,20.00
2019-02-10T06:21:30.885Z,28.00
2019-02-10T06:22:31.232Z,28.00
2019-02-10T06:23:30.838Z,32.00
2019-02-10T06:24:30.807Z,36.00
2019-02-10T06:25:30.853Z,40.00
2019-02-10T06:26:30.783Z,48.00
2019-02-10T06:27:30.794Z,52.00
2019-02-10T06:28:30.795Z,56.00
2019-02-10T06:29:30.827Z,64.00
2019-02-10T06:30:30.800Z,76.00
2019-02-10T06:31:30.845Z,84.00
2019-02-10T06:32:30.813Z,92.00
2019-02-10T06:33:30.822Z,108.00
2019-02-10T06:34:30.829Z,120.00
2019-02-10T06:35:30.905Z,132.00
2019-02-10T06:36:30.860Z,148.00
2019-02-10T06:37:30.851Z,160.00
2019-02-10T06:38:30.900Z,176.00
2019-02-10T06:39:30.872Z,188.00
2019-02-10T06:40:30.861Z,200.00
2019-02-10T06:41:30.858Z,216.00
2019-02-10T06:42:30.879Z,228.00
2019-02-10T06:43:30.877Z,244.00
2019-02-10T06:44:30.863Z,256.00
2019-02-10T06:45:30.912Z,268.00
2019-02-10T06:46:30.943Z,284.00
2019-02-10T06:47:30.896Z,296.00
2019-02-10T06:48:30.887Z,312.00
2019-02-10T06:49:30.931Z,332.00
2019-02-10T06:50:30.898Z,348.00
2019-02-10T06:51:31.426Z,376.00
2019-02-10T06:52:31.034Z,392.00
2019-02-10T06:53:31.303Z,408.00
2019-02-10T06:54:31.061Z,424.00
2019-02-10T06:55:31.039Z,436.00
2019-02-10T06:56:31.048Z,452.00
2019-02-10T06:57:30.977Z,464.00
2019-02-10T06:58:30.985Z,480.00
2019-02-10T06:59:31.081Z,500.00
2019-02-10T07:00:31.266Z,536.00
2019-02-10T07:01:30.993Z,560.00
2019-02-10T07:02:30.981Z,588.00
2019-02-10T07:03:30.973Z,624.00
2019-02-10T07:04:30.985Z,656.00
2019-02-10T07:05:30.977Z,676.00
2019-02-10T07:06:31.032Z,708.00
2019-02-10T07:07:31.044Z,744.00
2019-02-10T07:08:31.011Z,772.00
2019-02-10T07:09:30.973Z,796.00
2019-02-10T07:10:31.011Z,824.00
2019-02-10T07:11:30.992Z,840.00
2019-02-10T07:12:31.046Z,856.00
2019-02-10T07:13:31.018Z,876.00
2019-02-10T07:14:31.006Z,896.00
2019-02-10T07:15:31.012Z,928.00
2019-02-10T07:16:31.029Z,976.00
2019-02-10T07:17:31.132Z,1036.00
2019-02-10T07:18:31.162Z,1088.00
2019-02-10T07:19:31.043Z,1128.00
2019-02-10T07:20:31.054Z,1168.00
2019-02-10T07:21:31.046Z,1196.00
2019-02-10T07:22:31.145Z,1220.00
2019-02-10T07:23:31.142Z,1244.00
2019-02-10T07:24:31.118Z,1276.00
2019-02-10T07:25:31.059Z,1308.00
2019-02-10T07:26:31.339Z,1344.00
2019-02-10T07:27:31.068Z,1372.00
2019-02-10T07:28:31.142Z,1400.00
2019-02-10T07:29:31.167Z,1416.00
2019-02-10T07:30:31.218Z,1428.00
2019-02-10T07:31:31.135Z,1452.00
2019-02-10T07:32:31.118Z,1492.00
2019-02-10T07:33:31.109Z,1532.00
2019-02-10T07:34:31.144Z,1556.00
2019-02-10T07:35:31.159Z,1560.00
2019-02-10T07:36:31.170Z,1568.00
2019-02-10T07:37:31.151Z,1568.00
2019-02-10T07:38:38.338Z,1568.00
2019-02-10T07:39:33.069Z,1568.00
2019-02-10T07:40:31.736Z,1576.00
2019-02-10T07:41:33.577Z,1564.00
2019-02-10T07:42:32.096Z,1564.00
2019-02-10T07:43:31.161Z,1556.00
2019-02-10T07:44:31.151Z,1536.00
2019-02-10T07:45:31.195Z,1508.00
2019-02-10T07:46:31.184Z,1468.00
2019-02-10T07:47:31.178Z,1420.00
2019-02-10T07:48:31.172Z,1384.00
2019-02-10T07:49:31.224Z,1352.00
2019-02-10T07:50:31.166Z,1276.00
2019-02-10T07:51:31.212Z,1136.00
2019-02-10T07:52:31.202Z,1020.00
2019-02-10T07:53:31.224Z,1008.00
2019-02-10T07:54:31.252Z,1024.00
2019-02-10T07:55:31.303Z,1044.00
2019-02-10T07:56:31.298Z,1092.00
2019-02-10T07:57:31.235Z,1216.00
2019-02-10T07:58:31.275Z,1348.00
2019-02-10T07:59:31.293Z,1440.00
2019-02-10T08:00:31.386Z,1504.00
2019-02-10T08:01:31.326Z,1564.00
2019-02-10T08:02:31.293Z,1664.00
2019-02-10T08:03:31.245Z,1780.00
2019-02-10T08:04:31.252Z,1904.00
2019-02-10T08:05:31.242Z,2036.00
2019-02-10T08:06:31.280Z,2120.00
2019-02-10T08:07:31.277Z,2148.00
2019-02-10T08:08:31.275Z,2144.00
2019-02-10T08:09:31.284Z,2160.00
2019-02-10T08:10:31.348Z,2224.00
2019-02-10T08:11:31.311Z,2272.00
2019-02-10T08:12:31.382Z,2280.00
2019-02-10T08:13:31.349Z,2224.00
2019-02-10T08:14:31.373Z,2212.00
2019-02-10T08:15:31.288Z,2224.00
2019-02-10T08:16:31.810Z,2280.00
2019-02-10T08:17:31.331Z,2360.00
2019-02-10T08:18:31.345Z,2420.00
2019-02-10T08:19:31.341Z,2392.00
2019-02-10T08:20:38.361Z,2372.00
2019-02-10T08:21:31.336Z,2440.00
2019-02-10T08:22:31.369Z,2452.00
2019-02-10T08:23:31.334Z,2340.00
2019-02-10T08:24:31.339Z,2128.00
2019-02-10T08:25:31.400Z,1832.00
2019-02-10T08:26:31.365Z,1640.00
2019-02-10T08:27:31.389Z,1648.00
2019-02-10T08:28:31.392Z,1820.00
2019-02-10T08:29:31.356Z,2176.00
2019-02-10T08:30:31.378Z,2588.00
2019-02-10T08:31:31.386Z,2772.00
2019-02-10T08:32:31.387Z,2880.00
2019-02-10T08:33:31.400Z,2904.00
2019-02-10T08:34:31.395Z,2860.00
2019-02-10T08:35:31.674Z,2816.00
2019-02-10T08:36:31.427Z,2732.00
2019-02-10T08:37:31.412Z,2612.00
2019-02-10T08:38:31.457Z,2452.00
2019-02-10T08:39:31.428Z,2228.00
2019-02-10T08:40:31.435Z,2120.00
2019-02-10T08:41:31.440Z,2008.00
2019-02-10T08:42:31.451Z,1908.00
2019-02-10T08:43:31.890Z,1828.00
2019-02-10T08:44:31.476Z,1868.00
2019-02-10T08:45:31.463Z,1856.00
2019-02-10T08:46:31.482Z,1912.00
2019-02-10T08:47:33.747Z,2076.00
2019-02-10T08:48:31.463Z,2080.00
2019-02-10T08:49:31.491Z,2172.00
2019-02-10T08:50:31.617Z,2340.00
2019-02-10T08:51:31.486Z,2556.00
2019-02-10T08:52:31.495Z,2640.00
2019-02-10T08:53:31.523Z,2816.00
2019-02-10T08:54:31.534Z,2992.00
2019-02-10T08:55:31.533Z,3036.00
2019-02-10T08:56:31.512Z,2980.00
2019-02-10T08:57:31.505Z,2892.00
2019-02-10T08:58:31.574Z,2840.00
2019-02-10T08:59:31.648Z,2724.00
2019-02-10T09:00:31.676Z,2484.00
2019-02-10T09:01:31.563Z,2420.00
2019-02-10T09:02:31.541Z,2276.00
2019-02-10T09:03:31.561Z,2212.00
2019-02-10T09:04:31.562Z,2120.00
2019-02-10T09:05:31.615Z,2228.00
2019-02-10T09:06:31.579Z,2684.00
2019-02-10T09:07:31.604Z,2728.00
2019-02-10T09:08:31.576Z,2512.00
2019-02-10T09:09:31.595Z,2452.00
2019-02-10T09:10:31.623Z,2248.00
2019-02-10T09:11:31.602Z,2076.00
2019-02-10T09:12:31.664Z,1784.00
2019-02-10T09:13:31.632Z,1720.00
2019-02-10T09:14:31.628Z,1656.00
2019-02-10T09:15:31.644Z,1556.00
2019-02-10T09:16:31.656Z,1536.00
2019-02-10T09:17:31.658Z,1540.00
2019-02-10T09:18:31.713Z,1520.00
2019-02-10T09:19:31.646Z,1560.00
2019-02-10T09:20:31.654Z,1484.00
2019-02-10T09:21:31.704Z,1540.00
2019-02-10T09:22:31.765Z,1604.00
2019-02-10T09:23:31.730Z,1660.00
2019-02-10T09:24:31.705Z,1804.00
2019-02-10T09:25:31.681Z,1752.00
2019-02-10T09:26:31.865Z,1628.00
2019-02-10T09:27:31.675Z,1768.00
2019-02-10T09:28:31.706Z,1792.00
2019-02-10T09:29:31.741Z,1800.00
2019-02-10T09:30:31.716Z,1844.00
2019-02-10T09:31:33.167Z,1868.00
2019-02-10T09:32:31.720Z,1848.00
2019-02-10T09:33:31.759Z,2072.00
2019-02-10T09:34:31.772Z,1984.00
2019-02-10T09:35:32.004Z,2016.00
2019-02-10T09:36:31.776Z,1984.00
2019-02-10T09:37:31.758Z,1984.00
2019-02-10T09:38:31.787Z,2020.00
2019-02-10T09:39:31.757Z,1936.00
2019-02-10T09:40:31.777Z,1988.00
2019-02-10T09:41:31.751Z,1908.00
2019-02-10T09:42:31.768Z,2108.00
2019-02-10T09:43:31.773Z,1800.00
2019-02-10T09:44:31.813Z,1904.00
2019-02-10T09:45:31.812Z,2096.00
2019-02-10T09:46:31.806Z,2212.00
2019-02-10T09:47:31.786Z,2196.00
2019-02-10T09:48:32.000Z,2256.00
2019-02-10T09:49:31.812Z,2248.00
2019-02-10T09:50:32.633Z,2248.00
2019-02-10T09:51:31.884Z,2388.00
2019-02-10T09:52:31.850Z,2476.00
2019-02-10T09:53:31.966Z,2432.00
2019-02-10T09:54:31.881Z,2536.00
2019-02-10T09:55:31.817Z,2516.00
2019-02-10T09:56:31.891Z,2496.00
2019-02-10T09:57:31.877Z,2268.00
2019-02-10T09:58:31.862Z,2208.00
2019-02-10T09:59:31.837Z,2472.00
2019-02-10T10:00:31.870Z,2368.00
2019-02-10T10:01:31.888Z,2332.00
2019-02-10T10:02:31.883Z,2392.00
2019-02-10T10:03:31.903Z,2404.00
2019-02-10T10:04:31.890Z,2668.00
2019-02-10T10:05:31.959Z,2768.00
2019-02-10T10:06:31.939Z,2808.00
2019-02-10T10:07:32.022Z,2908.00
2019-02-10T10:08:31.896Z,2924.00
2019-02-10T10:09:31.955Z,2772.00
2019-02-10T10:10:31.946Z,2752.00
2019-02-10T10:11:31.927Z,2744.00
2019-02-10T10:12:32.116Z,2716.00
2019-02-10T10:13:31.923Z,2724.00
2019-02-10T10:14:31.922Z,2844.00
2019-02-10T10:15:31.938Z,2792.00
2019-02-10T10:16:32.035Z,2716.00
2019-02-10T10:17:32.003Z,2580.00
2019-02-10T10:18:31.955Z,2596.00
2019-02-10T10:19:31.994Z,2712.00
2019-02-10T10:20:31.982Z,2636.00
2019-02-10T10:21:31.972Z,2584.00
2019-02-10T10:22:32.028Z,2452.00
2019-02-10T10:23:31.979Z,2424.00
2019-02-10T10:24:32.040Z,2308.00
2019-02-10T10:25:32.010Z,2224.00
2019-02-10T10:26:31.997Z,2200.00
2019-02-10T10:27:32.024Z,2220.00
2019-02-10T10:28:32.068Z,2204.00
2019-02-10T10:29:32.007Z,2212.00
2019-02-10T10:30:32.013Z,2276.00
2019-02-10T10:31:32.342Z,2296.00
2019-02-10T10:32:32.032Z,2312.00
2019-02-10T10:33:32.166Z,2336.00
2019-02-10T10:34:32.366Z,2424.00
2019-02-10T10:35:32.082Z,2404.00
2019-02-10T10:36:32.236Z,2384.00
2019-02-10T10:37:32.563Z,2332.00
2019-02-10T10:38:32.256Z,2280.00
2019-02-10T10:39:32.181Z,2144.00
2019-02-10T10:40:32.069Z,2076.00
2019-02-10T10:41:32.094Z,1940.00
2019-02-10T10:42:32.116Z,1972.00
2019-02-10T10:43:32.078Z,1960.00
2019-02-10T10:44:32.083Z,2048.00
2019-02-10T10:45:32.194Z,2012.00
2019-02-10T10:46:32.090Z,2032.00
2019-02-10T10:47:32.157Z,2084.00
2019-02-10T10:48:32.249Z,2152.00
2019-02-10T10:49:32.157Z,2084.00
2019-02-10T10:50:32.132Z,2088.00
2019-02-10T10:51:32.178Z,2064.00
2019-02-10T10:52:32.157Z,1996.00
2019-02-10T10:53:32.161Z,2088.00
2019-02-10T10:54:32.167Z,2120.00
2019-02-10T10:55:32.149Z,2148.00
2019-02-10T10:56:32.193Z,2152.00
2019-02-10T10:57:32.157Z,2024.00
2019-02-10T10:58:32.158Z,2004.00
2019-02-10T10:59:32.173Z,1976.00
2019-02-10T11:00:32.265Z,2008.00
2019-02-10T11:01:32.212Z,1908.00
2019-02-10T11:02:32.237Z,1880.00
2019-02-10T11:03:32.219Z,1880.00
2019-02-10T11:04:32.214Z,1880.00
2019-02-10T11:05:32.213Z,1752.00
2019-02-10T11:06:33.918Z,1664.00
2019-02-10T11:07:32.194Z,1668.00
2019-02-10T11:08:32.210Z,1616.00
2019-02-10T11:09:35.629Z,1596.00
2019-02-10T11:10:32.240Z,1516.00
2019-02-10T11:11:32.309Z,1476.00
2019-02-10T11:12:32.289Z,1472.00
2019-02-10T11:13:32.315Z,1504.00
2019-02-10T11:14:32.277Z,1472.00
2019-02-10T11:15:32.315Z,1456.00
2019-02-10T11:16:32.251Z,1520.00
2019-02-10T11:17:32.721Z,1584.00
2019-02-10T11:18:32.269Z,1640.00
2019-02-10T11:19:32.550Z,1728.00
2019-02-10T11:20:32.274Z,1744.00
2019-02-10T11:21:32.314Z,1836.00
2019-02-10T11:22:32.362Z,1896.00
2019-02-10T11:23:32.275Z,1988.00
2019-02-10T11:24:32.308Z,2112.00
2019-02-10T11:25:32.301Z,1992.00
2019-02-10T11:26:32.299Z,1972.00
2019-02-10T11:27:32.319Z,1960.00
2019-02-10T11:28:32.345Z,2128.00
2019-02-10T11:29:32.343Z,2280.00
2019-02-10T11:30:32.343Z,2328.00
2019-02-10T11:31:32.352Z,2240.00
2019-02-10T11:32:32.346Z,2212.00
2019-02-10T11:33:32.395Z,2456.00
2019-02-10T11:34:32.371Z,2256.00
2019-02-10T11:35:32.370Z,2196.00
2019-02-10T11:36:32.354Z,2308.00
2019-02-10T11:37:32.366Z,2120.00
2019-02-10T11:38:32.418Z,2084.00
2019-02-10T11:39:32.368Z,2020.00
2019-02-10T11:40:32.390Z,2000.00
2019-02-10T11:41:32.409Z,2076.00
2019-02-10T11:42:32.460Z,1980.00
2019-02-10T11:43:32.448Z,2220.00
2019-02-10T11:44:32.439Z,2332.00
2019-02-10T11:45:32.430Z,2116.00
2019-02-10T11:46:32.436Z,2004.00
2019-02-10T11:47:32.451Z,2512.00
2019-02-10T11:48:32.440Z,2240.00
2019-02-10T11:49:32.451Z,1924.00
2019-02-10T11:50:32.474Z,2188.00
2019-02-10T11:51:33.177Z,2432.00
2019-02-10T11:52:32.468Z,3164.00
2019-02-10T11:53:32.478Z,3752.00
2019-02-10T11:54:32.642Z,4200.00
2019-02-10T11:55:32.786Z,3984.00
2019-02-10T11:56:32.513Z,3328.00
2019-02-10T11:57:32.456Z,3056.00
2019-02-10T11:58:32.490Z,3516.00
2019-02-10T11:59:32.728Z,3004.00
2019-02-10T12:00:33.373Z,2512.00
2019-02-10T12:01:32.929Z,2652.00
2019-02-10T12:02:37.895Z,2912.00
2019-02-10T12:03:32.747Z,3244.00
2019-02-10T12:04:32.522Z,3112.00
2019-02-10T12:05:32.568Z,3300.00
2019-02-10T12:06:32.580Z,3604.00
2019-02-10T12:07:32.710Z,3412.00
2019-02-10T12:08:35.610Z,3512.00
2019-02-10T12:09:32.549Z,3596.00
2019-02-10T12:10:32.643Z,3428.00
2019-02-10T12:11:32.660Z,3184.00
2019-02-10T12:12:32.611Z,2944.00
2019-02-10T12:13:32.639Z,2756.00
2019-02-10T12:14:32.566Z,2936.00
2019-02-10T12:15:32.748Z,2984.00
2019-02-10T12:16:32.681Z,3020.00
2019-02-10T12:17:33.053Z,2896.00
2019-02-10T12:18:32.596Z,2800.00
2019-02-10T12:19:33.375Z,2616.00
2019-02-10T12:20:32.658Z,2548.00
2019-02-10T12:21:32.640Z,2468.00
2019-02-10T12:22:32.615Z,2640.00
2019-02-10T12:23:32.648Z,2444.00
2019-02-10T12:24:32.647Z,2564.00
2019-02-10T12:25:32.636Z,2668.00
2019-02-10T12:26:32.654Z,3140.00
2019-02-10T12:27:32.669Z,3212.00
2019-02-10T12:28:32.686Z,2712.00
2019-02-10T12:29:32.701Z,2312.00
2019-02-10T12:30:32.669Z,2560.00
2019-02-10T12:31:32.665Z,2648.00
2019-02-10T12:32:32.731Z,2716.00
2019-02-10T12:33:32.681Z,2616.00
2019-02-10T12:34:32.697Z,2568.00
2019-02-10T12:35:32.718Z,2464.00
2019-02-10T12:36:32.701Z,2592.00
2019-02-10T12:37:32.855Z,2396.00
2019-02-10T12:38:32.726Z,2260.00
2019-02-10T12:39:32.736Z,2168.00
2019-02-10T12:40:32.737Z,2324.00
2019-02-10T12:41:32.708Z,2352.00
2019-02-10T12:42:32.905Z,2296.00